Meteo Giornale » Osservazioni meteo Italia » Resia Pass

ore: 18:55 - Osservazioni Meteo Resia Pass
Lat. 46° 50' N Lon. 10° 30' E Alt. 1800 metri s.l.m.

sereno Europe/Rome

9 °C

Sereno

Temp. 24 Ore

-1 °C

15 °C

Nord

5.5 Km/h

Dew point -4 °C

Umidità 39 %

Visibilità  10 Km

Il sole sorge alle ore 07:02

Il sole tramonta alle ore 19:43

Data e Ora Cielo e Fenomeni T °C DP °C Um. % Pres. hPa Vis. km Vento km/h
Oggi h: 18:55 sereno Sereno 9 -4 39 1021 10 N 5.5
Oggi h: 17:55 sereno Sereno 11 -5 32 1021 10 N 5.5
Oggi h: 16:55 sereno Sereno 12 -4 32 1021 10 S/SO 9.3
Oggi h: 15:55 sereno Sereno 13 -5 28 1021 10 S/SO 9.3
Oggi h: 14:55 sereno Sereno 15 -10 16 1022 10 N 5.5
Oggi h: 13:55 sereno Sereno 15 -10 16 1021 10 N/NE 13
Oggi h: 12:55 sereno Sereno 13 -10 19 1022 10 N/NE 14.8
Oggi h: 11:55 sereno Sereno 12 -9 22 1022 10 N/NE 11.1
Oggi h: 10:55 sereno Sereno 6 -3 52 1023 10 N 11.1
Oggi h: 09:55 sereno Sereno 3 -2 69 1023 10 N 11.1
Oggi h: 08:55 sereno Sereno -1 -2 92 1023 10 N/NE 7.4
Oggi h: 07:55 sereno Sereno -1 -2 92 1023 10 N/NE 9.3
Oggi h: 06:55 sereno Sereno -1 -2 92 1023 10 N/NE 9.3
Oggi h: 05:55 sereno Sereno -1 -2 92 1023 10 N/NE 9.3
Oggi h: 04:55 sereno Sereno -1 -2 92 1023 10 N/NE 9.3
Oggi h: 03:55 sereno Sereno -0 -1 92 1024 10 N 0
Oggi h: 02:55 sereno Sereno -0 -1 92 1024 10 N 0
Oggi h: 01:55 sereno Sereno 1 -1 86 1024 10 N 0
Oggi h: 00:55 sereno Sereno 1 -1 86 1024 10 N 0
Ieri h: 23:55 sereno Sereno 1 -1 86 1024 10 N 5.5
Ieri h: 22:55 sereno Sereno 2 -0 86 1023 10 N 0
Ieri h: 21:55 sereno Sereno 3 -0 80 1022 10 N 0
Ieri h: 20:55 sereno Sereno 4 -0 75 1022 10 N 0
Ieri h: 19:55 sereno Sereno 6 -0 65 1021 10 N 0